หน้าหลัก
METAR-TAF:

METAR-TAF

ท่าอากาศยาน :

อาบีจาน, โกตดิวัวร์

ละติจูด: 05-15N, ลองจิจูด: 003-56W, ความสูง: 7 ม.

การสังเกตสภาพอากาศปัจจุบัน

รายงานได้ทำขึ้นเมื่อ 38 นาทีที่แล้ว ณ เวลา 08:00 UTC
ลม 7 นอตจากตะวันตก
อุณหภูมิ 29°C
ความชื้น 89%
ความกดอากาศ 1013 hPa
ทัศนวิสัย: 8000 ม.
มีเมฆน้อยที่ความสูง 1300 ฟุต

METAR: DIAP 250800Z 27007KT 8000 FEW013 29/27 Q1013 NOSIG

เวลา: 08:38 (08:38 UTC)

การพยากรณ์

รายงานได้ทำขึ้นเมื่อ 3 ชั่วโมงและ 38 นาทีที่แล้ว ณ เวลา 05:00 UTC
การพยากรณ์มีผลตั้งแต่วันที่ 25 ณ เวลา 06 UTC จนถึงวันที่ 26 ณ เวลา 12 UTC
ลม 6 นอตจากตะวันตกเฉียงใต้
ทัศนวิสัย: 8000 ม.
มีเมฆน้อยที่ความสูง 1100 ฟุต
ความน่าจะเป็น 40%
ตั้งแต่วันที่ 25 ณ เวลา 13 UTC จนถึงวันที่ 25 ณ เวลา 18 UTC
มีเมฆเป็นส่วนมากเว้นเป็นระยะที่ความสูง 1200 ฟุต
มีเมฆน้อยที่ความสูง 2000 ฟุต, คิวมูโลนิมบัส.

TAF: DIAP 250500Z 2506/2612 23006KT 8000 FEW011 PROB40 2513/2518 BKN012 FEW020CB

สังเกตการณ์สภาพอากาศและพยากรณ์อากาศของสนามบินมากกว่า 4000 แห่ง (รายงาน METAR และ TAF).

สถานีที่ดูได้จะแสดงไว้ด้วยจุดสีเหลืองและสีแดงบนแผนที่.

เลื่อนเมาส์ไปเหนือจุดเพื่อดูชื่อสถานี.

แล้วคลิกเพื่อดูสังเกตการณ์และการพยากรณ์สภาพอากาศ.

ในการเปลี่ยนแผนที่: คลิกที่ปุ่มสีเขียวที่มีกากบาทสีดำเพื่อซูมเข้า; ที่ปุ่มสีเขียวที่มีขีดเพื่อซูมออก; หรือที่ลูกศรสีเขียวเพื่อไปยังแผนที่ที่อยู่ติดกัน.


METAR-TAF: